sensor_id;sensor_type;location;lat;lon;timestamp;temperature;humidity
77829;DHT22;67019;51.034;3.728;2023-05-19T00:00:57;11.00;95.20
77829;DHT22;67019;51.034;3.728;2023-05-19T00:03:25;11.00;95.30
77829;DHT22;67019;51.034;3.728;2023-05-19T00:05:53;11.00;95.20
77829;DHT22;67019;51.034;3.728;2023-05-19T00:08:22;11.20;94.80
77829;DHT22;67019;51.034;3.728;2023-05-19T00:13:18;11.40;94.30
77829;DHT22;67019;51.034;3.728;2023-05-19T00:18:14;11.00;94.90
77829;DHT22;67019;51.034;3.728;2023-05-19T00:20:42;11.00;94.40
77829;DHT22;67019;51.034;3.728;2023-05-19T00:23:10;11.10;94.60
77829;DHT22;67019;51.034;3.728;2023-05-19T00:25:37;10.80;94.80
77829;DHT22;67019;51.034;3.728;2023-05-19T00:28:05;10.80;94.60
77829;DHT22;67019;51.034;3.728;2023-05-19T00:30:33;11.00;94.70
77829;DHT22;67019;51.034;3.728;2023-05-19T00:33:00;11.00;94.30
77829;DHT22;67019;51.034;3.728;2023-05-19T00:35:28;11.00;94.50
77829;DHT22;67019;51.034;3.728;2023-05-19T00:37:55;11.00;94.30
77829;DHT22;67019;51.034;3.728;2023-05-19T00:40:23;10.90;94.20
77829;DHT22;67019;51.034;3.728;2023-05-19T00:42:51;10.90;94.30
77829;DHT22;67019;51.034;3.728;2023-05-19T00:45:19;10.80;94.10
77829;DHT22;67019;51.034;3.728;2023-05-19T00:47:47;11.10;93.90
77829;DHT22;67019;51.034;3.728;2023-05-19T00:50:14;10.90;94.30
77829;DHT22;67019;51.034;3.728;2023-05-19T00:55:09;10.90;95.20
77829;DHT22;67019;51.034;3.728;2023-05-19T00:57:39;10.90;95.60
77829;DHT22;67019;51.034;3.728;2023-05-19T01:00:07;10.80;95.70
77829;DHT22;67019;51.034;3.728;2023-05-19T01:02:37;10.60;96.00
77829;DHT22;67019;51.034;3.728;2023-05-19T01:05:06;11.00;95.90
77829;DHT22;67019;51.034;3.728;2023-05-19T01:07:35;9.90;95.40
77829;DHT22;67019;51.034;3.728;2023-05-19T01:10:03;10.90;96.00
77829;DHT22;67019;51.034;3.728;2023-05-19T01:12:31;10.70;96.00
77829;DHT22;67019;51.034;3.728;2023-05-19T01:14:59;10.40;96.30
77829;DHT22;67019;51.034;3.728;2023-05-19T01:17:29;10.40;96.50
77829;DHT22;67019;51.034;3.728;2023-05-19T01:31:03;10.40;96.40
77829;DHT22;67019;51.034;3.728;2023-05-19T01:33:32;10.40;96.30
77829;DHT22;67019;51.034;3.728;2023-05-19T01:36:02;10.50;95.70
77829;DHT22;67019;51.034;3.728;2023-05-19T01:38:30;10.50;95.80
77829;DHT22;67019;51.034;3.728;2023-05-19T01:40:59;10.30;96.00
77829;DHT22;67019;51.034;3.728;2023-05-19T01:43:29;10.30;96.20
77829;DHT22;67019;51.034;3.728;2023-05-19T01:45:57;10.30;96.40
77829;DHT22;67019;51.034;3.728;2023-05-19T01:48:26;10.30;96.30
77829;DHT22;67019;51.034;3.728;2023-05-19T01:50:55;10.40;96.10
77829;DHT22;67019;51.034;3.728;2023-05-19T01:53:25;10.50;95.70
77829;DHT22;67019;51.034;3.728;2023-05-19T01:55:54;10.60;95.70
77829;DHT22;67019;51.034;3.728;2023-05-19T01:58:47;10.10;96.40
77829;DHT22;67019;51.034;3.728;2023-05-19T02:01:18;10.20;96.50
77829;DHT22;67019;51.034;3.728;2023-05-19T02:06:54;10.50;96.30
77829;DHT22;67019;51.034;3.728;2023-05-19T02:09:33;10.30;96.00
77829;DHT22;67019;51.034;3.728;2023-05-19T02:14:39;10.40;95.70
77829;DHT22;67019;51.034;3.728;2023-05-19T02:17:04;10.50;95.80
77829;DHT22;67019;51.034;3.728;2023-05-19T02:19:35;10.10;96.00
77829;DHT22;67019;51.034;3.728;2023-05-19T02:24:32;10.30;95.90
77829;DHT22;67019;51.034;3.728;2023-05-19T02:27:00;10.00;95.90
77829;DHT22;67019;51.034;3.728;2023-05-19T02:29:28;10.40;96.00
77829;DHT22;67019;51.034;3.728;2023-05-19T02:31:55;10.10;96.20
77829;DHT22;67019;51.034;3.728;2023-05-19T02:34:23;10.20;96.30
77829;DHT22;67019;51.034;3.728;2023-05-19T02:36:51;10.10;96.40
77829;DHT22;67019;51.034;3.728;2023-05-19T02:39:18;10.30;96.50
77829;DHT22;67019;51.034;3.728;2023-05-19T02:41:46;10.50;96.60
77829;DHT22;67019;51.034;3.728;2023-05-19T02:46:41;10.40;96.40
77829;DHT22;67019;51.034;3.728;2023-05-19T02:49:08;10.40;96.80
77829;DHT22;67019;51.034;3.728;2023-05-19T02:51:36;10.10;96.40
77829;DHT22;67019;51.034;3.728;2023-05-19T02:54:04;10.10;96.40
77829;DHT22;67019;51.034;3.728;2023-05-19T02:56:32;9.90;96.60
77829;DHT22;67019;51.034;3.728;2023-05-19T02:58:59;10.20;96.80
77829;DHT22;67019;51.034;3.728;2023-05-19T03:01:27;10.00;97.30
77829;DHT22;67019;51.034;3.728;2023-05-19T03:03:54;10.10;97.70
77829;DHT22;67019;51.034;3.728;2023-05-19T03:06:22;10.20;97.80
77829;DHT22;67019;51.034;3.728;2023-05-19T03:08:50;10.10;98.10
77829;DHT22;67019;51.034;3.728;2023-05-19T03:11:17;10.10;98.30
77829;DHT22;67019;51.034;3.728;2023-05-19T03:13:45;10.10;98.70
77829;DHT22;67019;51.034;3.728;2023-05-19T03:16:12;10.00;98.80
77829;DHT22;67019;51.034;3.728;2023-05-19T03:18:45;10.10;98.90
77829;DHT22;67019;51.034;3.728;2023-05-19T03:23:42;9.90;99.20
77829;DHT22;67019;51.034;3.728;2023-05-19T03:26:09;10.00;99.50
77829;DHT22;67019;51.034;3.728;2023-05-19T03:28:37;9.90;99.50
77829;DHT22;67019;51.034;3.728;2023-05-19T03:31:04;9.70;99.70
77829;DHT22;67019;51.034;3.728;2023-05-19T03:33:32;9.80;99.90
77829;DHT22;67019;51.034;3.728;2023-05-19T03:36:00;9.80;99.90
77829;DHT22;67019;51.034;3.728;2023-05-19T03:38:27;9.90;99.90
77829;DHT22;67019;51.034;3.728;2023-05-19T03:40:55;9.70;99.90
77829;DHT22;67019;51.034;3.728;2023-05-19T03:43:22;9.70;99.90
77829;DHT22;67019;51.034;3.728;2023-05-19T03:45:50;9.90;99.80
77829;DHT22;67019;51.034;3.728;2023-05-19T03:48:18;10.00;99.70
77829;DHT22;67019;51.034;3.728;2023-05-19T03:50:45;9.90;99.50
77829;DHT22;67019;51.034;3.728;2023-05-19T03:53:14;9.90;98.70
77829;DHT22;67019;51.034;3.728;2023-05-19T03:55:41;10.20;98.70
77829;DHT22;67019;51.034;3.728;2023-05-19T03:58:10;9.90;98.50
77829;DHT22;67019;51.034;3.728;2023-05-19T04:00:39;9.90;98.70
77829;DHT22;67019;51.034;3.728;2023-05-19T04:03:07;9.90;98.60
77829;DHT22;67019;51.034;3.728;2023-05-19T04:05:34;9.90;98.50
77829;DHT22;67019;51.034;3.728;2023-05-19T04:08:02;9.80;98.50
77829;DHT22;67019;51.034;3.728;2023-05-19T04:10:30;9.80;98.40
77829;DHT22;67019;51.034;3.728;2023-05-19T04:12:57;9.90;98.60
77829;DHT22;67019;51.034;3.728;2023-05-19T04:15:25;9.80;98.80
77829;DHT22;67019;51.034;3.728;2023-05-19T04:17:53;9.80;98.60
77829;DHT22;67019;51.034;3.728;2023-05-19T04:20:20;10.00;98.60
77829;DHT22;67019;51.034;3.728;2023-05-19T04:22:48;12.50;99.30
77829;DHT22;67019;51.034;3.728;2023-05-19T04:25:16;10.50;98.40
77829;DHT22;67019;51.034;3.728;2023-05-19T04:27:45;10.10;98.60
77829;DHT22;67019;51.034;3.728;2023-05-19T04:30:14;9.70;99.10
77829;DHT22;67019;51.034;3.728;2023-05-19T04:32:43;9.90;99.30
77829;DHT22;67019;51.034;3.728;2023-05-19T04:35:10;10.00;98.80
77829;DHT22;67019;51.034;3.728;2023-05-19T04:37:39;9.80;99.00
77829;DHT22;67019;51.034;3.728;2023-05-19T04:40:08;9.80;99.40
77829;DHT22;67019;51.034;3.728;2023-05-19T04:42:36;9.90;99.60
77829;DHT22;67019;51.034;3.728;2023-05-19T04:45:06;10.00;99.30
77829;DHT22;67019;51.034;3.728;2023-05-19T04:47:34;10.20;99.10
77829;DHT22;67019;51.034;3.728;2023-05-19T04:50:06;10.20;99.00
77829;DHT22;67019;51.034;3.728;2023-05-19T04:52:35;9.60;99.70
77829;DHT22;67019;51.034;3.728;2023-05-19T04:55:03;9.70;99.90
77829;DHT22;67019;51.034;3.728;2023-05-19T04:57:31;9.90;99.70
77829;DHT22;67019;51.034;3.728;2023-05-19T04:59:58;9.80;99.50
77829;DHT22;67019;51.034;3.728;2023-05-19T05:02:28;9.90;99.30
77829;DHT22;67019;51.034;3.728;2023-05-19T05:04:55;10.40;99.10
77829;DHT22;67019;51.034;3.728;2023-05-19T05:07:23;10.10;98.70
77829;DHT22;67019;51.034;3.728;2023-05-19T05:09:51;10.00;98.70
77829;DHT22;67019;51.034;3.728;2023-05-19T05:12:19;10.00;99.00
77829;DHT22;67019;51.034;3.728;2023-05-19T05:14:47;9.90;98.70
77829;DHT22;67019;51.034;3.728;2023-05-19T05:17:15;9.80;98.60
77829;DHT22;67019;51.034;3.728;2023-05-19T05:19:43;9.90;98.70
77829;DHT22;67019;51.034;3.728;2023-05-19T05:24:38;10.30;97.90
77829;DHT22;67019;51.034;3.728;2023-05-19T05:27:06;10.20;98.30
77829;DHT22;67019;51.034;3.728;2023-05-19T05:29:35;10.00;97.50
77829;DHT22;67019;51.034;3.728;2023-05-19T05:32:03;10.30;97.80
77829;DHT22;67019;51.034;3.728;2023-05-19T05:34:30;10.30;97.60
77829;DHT22;67019;51.034;3.728;2023-05-19T05:36:58;10.40;97.80
77829;DHT22;67019;51.034;3.728;2023-05-19T05:39:26;10.50;97.40
77829;DHT22;67019;51.034;3.728;2023-05-19T05:41:54;10.60;96.80
77829;DHT22;67019;51.034;3.728;2023-05-19T05:44:21;10.80;96.60
77829;DHT22;67019;51.034;3.728;2023-05-19T05:46:49;10.90;96.20
77829;DHT22;67019;51.034;3.728;2023-05-19T05:49:17;10.50;96.20
77829;DHT22;67019;51.034;3.728;2023-05-19T05:51:45;12.80;97.30
77829;DHT22;67019;51.034;3.728;2023-05-19T05:54:14;10.40;96.50
77829;DHT22;67019;51.034;3.728;2023-05-19T05:56:43;10.80;96.60
77829;DHT22;67019;51.034;3.728;2023-05-19T05:59:11;11.00;96.10
77829;DHT22;67019;51.034;3.728;2023-05-19T06:01:38;10.90;95.70
77829;DHT22;67019;51.034;3.728;2023-05-19T06:04:08;10.70;95.30
77829;DHT22;67019;51.034;3.728;2023-05-19T06:06:36;10.50;95.60
77829;DHT22;67019;51.034;3.728;2023-05-19T06:09:04;10.60;95.80
77829;DHT22;67019;51.034;3.728;2023-05-19T06:11:32;10.70;95.80
77829;DHT22;67019;51.034;3.728;2023-05-19T06:13:59;10.80;95.70
77829;DHT22;67019;51.034;3.728;2023-05-19T06:16:27;10.90;95.60
77829;DHT22;67019;51.034;3.728;2023-05-19T06:18:56;11.20;95.40
77829;DHT22;67019;51.034;3.728;2023-05-19T06:21:24;11.40;94.50
77829;DHT22;67019;51.034;3.728;2023-05-19T06:23:52;11.20;94.70
77829;DHT22;67019;51.034;3.728;2023-05-19T06:26:19;11.30;94.60
77829;DHT22;67019;51.034;3.728;2023-05-19T06:28:47;11.60;94.00
77829;DHT22;67019;51.034;3.728;2023-05-19T06:31:15;11.50;93.70
77829;DHT22;67019;51.034;3.728;2023-05-19T06:33:42;11.80;93.50
77829;DHT22;67019;51.034;3.728;2023-05-19T06:36:10;11.70;93.80
77829;DHT22;67019;51.034;3.728;2023-05-19T06:38:39;11.40;94.60
77829;DHT22;67019;51.034;3.728;2023-05-19T06:41:06;11.40;94.80
77829;DHT22;67019;51.034;3.728;2023-05-19T06:43:34;11.40;94.30
77829;DHT22;67019;51.034;3.728;2023-05-19T06:46:01;11.70;93.90
77829;DHT22;67019;51.034;3.728;2023-05-19T06:48:29;12.00;93.30
77829;DHT22;67019;51.034;3.728;2023-05-19T06:50:57;12.30;92.30
77829;DHT22;67019;51.034;3.728;2023-05-19T06:53:24;12.30;92.10
77829;DHT22;67019;51.034;3.728;2023-05-19T06:55:52;12.50;91.70
77829;DHT22;67019;51.034;3.728;2023-05-19T06:58:19;12.40;91.70
77829;DHT22;67019;51.034;3.728;2023-05-19T07:00:47;12.50;91.40
77829;DHT22;67019;51.034;3.728;2023-05-19T07:03:15;12.60;90.90
77829;DHT22;67019;51.034;3.728;2023-05-19T07:05:42;12.50;91.00
77829;DHT22;67019;51.034;3.728;2023-05-19T07:08:10;12.80;91.30
77829;DHT22;67019;51.034;3.728;2023-05-19T07:10:37;12.40;91.70
77829;DHT22;67019;51.034;3.728;2023-05-19T07:13:05;12.50;91.60
77829;DHT22;67019;51.034;3.728;2023-05-19T07:15:33;12.70;91.60
77829;DHT22;67019;51.034;3.728;2023-05-19T07:18:00;13.00;91.00
77829;DHT22;67019;51.034;3.728;2023-05-19T07:20:28;12.90;90.60
77829;DHT22;67019;51.034;3.728;2023-05-19T07:22:56;13.10;90.10
77829;DHT22;67019;51.034;3.728;2023-05-19T07:25:23;13.20;90.30
77829;DHT22;67019;51.034;3.728;2023-05-19T07:27:52;12.90;91.10
77829;DHT22;67019;51.034;3.728;2023-05-19T07:30:20;13.10;90.60
77829;DHT22;67019;51.034;3.728;2023-05-19T07:32:47;13.10;91.00
77829;DHT22;67019;51.034;3.728;2023-05-19T07:35:15;13.30;90.70
77829;DHT22;67019;51.034;3.728;2023-05-19T07:37:42;13.40;90.30
77829;DHT22;67019;51.034;3.728;2023-05-19T07:40:10;13.40;90.50
77829;DHT22;67019;51.034;3.728;2023-05-19T07:42:40;13.90;88.50
77829;DHT22;67019;51.034;3.728;2023-05-19T07:45:08;13.80;89.30
77829;DHT22;67019;51.034;3.728;2023-05-19T07:47:36;14.10;87.30
77829;DHT22;67019;51.034;3.728;2023-05-19T07:50:04;14.00;87.70
77829;DHT22;67019;51.034;3.728;2023-05-19T07:52:31;14.00;88.80
77829;DHT22;67019;51.034;3.728;2023-05-19T07:54:59;13.90;88.90
77829;DHT22;67019;51.034;3.728;2023-05-19T07:57:27;13.90;88.40
77829;DHT22;67019;51.034;3.728;2023-05-19T07:59:54;14.50;86.80
77829;DHT22;67019;51.034;3.728;2023-05-19T08:02:22;14.60;87.40
77829;DHT22;67019;51.034;3.728;2023-05-19T08:04:49;14.80;85.40
77829;DHT22;67019;51.034;3.728;2023-05-19T08:07:18;15.00;82.60
77829;DHT22;67019;51.034;3.728;2023-05-19T08:09:46;14.50;85.50
77829;DHT22;67019;51.034;3.728;2023-05-19T08:12:13;14.40;86.20
77829;DHT22;67019;51.034;3.728;2023-05-19T08:14:41;14.70;86.20
77829;DHT22;67019;51.034;3.728;2023-05-19T08:17:09;14.80;83.80
77829;DHT22;67019;51.034;3.728;2023-05-19T08:19:36;14.90;82.20
77829;DHT22;67019;51.034;3.728;2023-05-19T08:22:04;15.40;82.50
77829;DHT22;67019;51.034;3.728;2023-05-19T08:24:31;14.70;83.30
77829;DHT22;67019;51.034;3.728;2023-05-19T08:26:59;14.30;84.80
77829;DHT22;67019;51.034;3.728;2023-05-19T08:29:27;14.60;84.00
77829;DHT22;67019;51.034;3.728;2023-05-19T08:31:55;14.70;85.10
77829;DHT22;67019;51.034;3.728;2023-05-19T08:34:23;14.80;84.60
77829;DHT22;67019;51.034;3.728;2023-05-19T08:36:51;15.10;82.80
77829;DHT22;67019;51.034;3.728;2023-05-19T08:39:19;15.10;83.40
77829;DHT22;67019;51.034;3.728;2023-05-19T08:41:48;15.30;84.80
77829;DHT22;67019;51.034;3.728;2023-05-19T08:44:16;15.40;83.70
77829;DHT22;67019;51.034;3.728;2023-05-19T08:46:46;15.50;83.20
77829;DHT22;67019;51.034;3.728;2023-05-19T08:49:16;15.10;85.20
77829;DHT22;67019;51.034;3.728;2023-05-19T08:54:40;15.70;81.70
77829;DHT22;67019;51.034;3.728;2023-05-19T08:57:04;15.80;81.50
77829;DHT22;67019;51.034;3.728;2023-05-19T08:59:33;15.90;80.40
77829;DHT22;67019;51.034;3.728;2023-05-19T09:02:02;15.90;81.10
77829;DHT22;67019;51.034;3.728;2023-05-19T09:04:30;15.90;80.30
77829;DHT22;67019;51.034;3.728;2023-05-19T09:06:58;16.10;79.40
77829;DHT22;67019;51.034;3.728;2023-05-19T09:09:28;16.20;79.10
77829;DHT22;67019;51.034;3.728;2023-05-19T09:11:55;16.30;78.20
77829;DHT22;67019;51.034;3.728;2023-05-19T09:14:23;16.30;78.00
77829;DHT22;67019;51.034;3.728;2023-05-19T09:16:51;16.60;76.80
77829;DHT22;67019;51.034;3.728;2023-05-19T09:19:19;16.50;77.00
77829;DHT22;67019;51.034;3.728;2023-05-19T09:21:56;16.30;78.20
77829;DHT22;67019;51.034;3.728;2023-05-19T09:24:18;16.60;77.70
77829;DHT22;67019;51.034;3.728;2023-05-19T09:26:45;16.70;77.40
77829;DHT22;67019;51.034;3.728;2023-05-19T09:29:16;16.50;76.90
77829;DHT22;67019;51.034;3.728;2023-05-19T09:31:54;16.50;77.30
77829;DHT22;67019;51.034;3.728;2023-05-19T09:34:23;16.50;76.20
77829;DHT22;67019;51.034;3.728;2023-05-19T09:36:52;16.70;76.00
77829;DHT22;67019;51.034;3.728;2023-05-19T09:39:21;16.70;76.80
77829;DHT22;67019;51.034;3.728;2023-05-19T09:41:53;16.40;77.30
77829;DHT22;67019;51.034;3.728;2023-05-19T09:44:22;16.60;76.80
77829;DHT22;67019;51.034;3.728;2023-05-19T09:46:51;16.90;74.30
77829;DHT22;67019;51.034;3.728;2023-05-19T09:49:22;16.60;74.70
77829;DHT22;67019;51.034;3.728;2023-05-19T09:51:54;16.80;75.00
77829;DHT22;67019;51.034;3.728;2023-05-19T09:54:22;16.90;75.60
77829;DHT22;67019;51.034;3.728;2023-05-19T09:59:26;17.40;74.80
77829;DHT22;67019;51.034;3.728;2023-05-19T10:01:55;17.70;72.30
77829;DHT22;67019;51.034;3.728;2023-05-19T10:04:24;18.80;72.70
77829;DHT22;67019;51.034;3.728;2023-05-19T10:06:56;17.70;71.00
77829;DHT22;67019;51.034;3.728;2023-05-19T10:09:28;17.50;72.10
77829;DHT22;67019;51.034;3.728;2023-05-19T10:11:57;17.30;71.70
77829;DHT22;67019;51.034;3.728;2023-05-19T10:14:26;17.20;72.60
77829;DHT22;67019;51.034;3.728;2023-05-19T10:16:56;17.50;71.10
77829;DHT22;67019;51.034;3.728;2023-05-19T10:19:26;17.20;70.40
77829;DHT22;67019;51.034;3.728;2023-05-19T10:21:54;17.50;67.80
77829;DHT22;67019;51.034;3.728;2023-05-19T10:24:23;17.50;67.00
77829;DHT22;67019;51.034;3.728;2023-05-19T10:27:11;17.90;67.90
77829;DHT22;67019;51.034;3.728;2023-05-19T10:29:30;18.00;67.30
77829;DHT22;67019;51.034;3.728;2023-05-19T10:32:00;18.10;65.90
77829;DHT22;67019;51.034;3.728;2023-05-19T10:40:20;17.90;66.10
77829;DHT22;67019;51.034;3.728;2023-05-19T10:43:24;17.90;60.80
77829;DHT22;67019;51.034;3.728;2023-05-19T10:45:50;18.40;61.90
77829;DHT22;67019;51.034;3.728;2023-05-19T10:48:19;19.00;59.60
77829;DHT22;67019;51.034;3.728;2023-05-19T10:50:52;19.10;59.80
77829;DHT22;67019;51.034;3.728;2023-05-19T10:53:18;19.40;60.80
77829;DHT22;67019;51.034;3.728;2023-05-19T10:55:54;19.50;59.00
77829;DHT22;67019;51.034;3.728;2023-05-19T11:01:19;19.50;57.70
77829;DHT22;67019;51.034;3.728;2023-05-19T11:03:52;18.30;57.80
77829;DHT22;67019;51.034;3.728;2023-05-19T11:06:27;17.90;60.30
77829;DHT22;67019;51.034;3.728;2023-05-19T11:08:57;17.70;61.70
77829;DHT22;67019;51.034;3.728;2023-05-19T11:11:43;18.10;58.60
77829;DHT22;67019;51.034;3.728;2023-05-19T11:13:55;18.30;57.50
77829;DHT22;67019;51.034;3.728;2023-05-19T11:16:28;18.50;57.20
77829;DHT22;67019;51.034;3.728;2023-05-19T11:18:58;18.60;57.60
77829;DHT22;67019;51.034;3.728;2023-05-19T11:21:45;18.70;58.80
77829;DHT22;67019;51.034;3.728;2023-05-19T11:24:32;18.70;58.20
77829;DHT22;67019;51.034;3.728;2023-05-19T11:27:26;18.00;59.70
77829;DHT22;67019;51.034;3.728;2023-05-19T11:29:55;18.50;60.00
77829;DHT22;67019;51.034;3.728;2023-05-19T11:32:29;18.90;58.40
77829;DHT22;67019;51.034;3.728;2023-05-19T11:34:57;18.70;57.70
77829;DHT22;67019;51.034;3.728;2023-05-19T11:37:25;18.70;58.90
77829;DHT22;67019;51.034;3.728;2023-05-19T11:39:54;18.60;58.50
77829;DHT22;67019;51.034;3.728;2023-05-19T11:42:21;18.70;58.80
77829;DHT22;67019;51.034;3.728;2023-05-19T11:44:49;18.70;59.30
77829;DHT22;67019;51.034;3.728;2023-05-19T11:47:19;19.00;58.40
77829;DHT22;67019;51.034;3.728;2023-05-19T11:49:48;19.00;58.40
77829;DHT22;67019;51.034;3.728;2023-05-19T11:52:15;19.40;57.80
77829;DHT22;67019;51.034;3.728;2023-05-19T11:54:46;19.20;57.50
77829;DHT22;67019;51.034;3.728;2023-05-19T11:57:13;19.10;57.30
77829;DHT22;67019;51.034;3.728;2023-05-19T11:59:41;18.90;57.10
77829;DHT22;67019;51.034;3.728;2023-05-19T12:02:23;18.90;57.00
77829;DHT22;67019;51.034;3.728;2023-05-19T12:04:51;18.90;57.60
77829;DHT22;67019;51.034;3.728;2023-05-19T12:07:23;19.10;56.90
77829;DHT22;67019;51.034;3.728;2023-05-19T12:09:51;19.40;56.50
77829;DHT22;67019;51.034;3.728;2023-05-19T12:12:21;19.20;57.10
77829;DHT22;67019;51.034;3.728;2023-05-19T12:14:50;19.60;56.30
77829;DHT22;67019;51.034;3.728;2023-05-19T12:17:19;19.80;56.00
77829;DHT22;67019;51.034;3.728;2023-05-19T12:19:48;19.60;55.80
77829;DHT22;67019;51.034;3.728;2023-05-19T12:22:16;19.60;55.70
77829;DHT22;67019;51.034;3.728;2023-05-19T12:24:45;19.50;56.60
77829;DHT22;67019;51.034;3.728;2023-05-19T12:27:18;19.60;56.50
77829;DHT22;67019;51.034;3.728;2023-05-19T12:29:54;19.40;56.90
77829;DHT22;67019;51.034;3.728;2023-05-19T12:32:25;18.90;58.90
77829;DHT22;67019;51.034;3.728;2023-05-19T12:34:56;19.10;58.30
77829;DHT22;67019;51.034;3.728;2023-05-19T12:37:27;19.80;55.20
77829;DHT22;67019;51.034;3.728;2023-05-19T12:40:00;19.90;55.80
77829;DHT22;67019;51.034;3.728;2023-05-19T12:42:28;20.10;54.80
77829;DHT22;67019;51.034;3.728;2023-05-19T12:45:02;20.20;56.00
77829;DHT22;67019;51.034;3.728;2023-05-19T12:47:32;20.20;55.60
77829;DHT22;67019;51.034;3.728;2023-05-19T12:50:02;21.50;56.60
77829;DHT22;67019;51.034;3.728;2023-05-19T12:52:31;20.50;54.20
77829;DHT22;67019;51.034;3.728;2023-05-19T12:55:02;20.80;52.80
77829;DHT22;67019;51.034;3.728;2023-05-19T12:57:42;20.80;53.40
77829;DHT22;67019;51.034;3.728;2023-05-19T13:00:20;20.40;53.80
77829;DHT22;67019;51.034;3.728;2023-05-19T13:05:31;19.50;55.60
77829;DHT22;67019;51.034;3.728;2023-05-19T13:08:13;20.10;55.20
77829;DHT22;67019;51.034;3.728;2023-05-19T13:10:42;20.10;54.80
77829;DHT22;67019;51.034;3.728;2023-05-19T13:13:12;20.20;54.50
77829;DHT22;67019;51.034;3.728;2023-05-19T13:15:44;20.60;54.30
77829;DHT22;67019;51.034;3.728;2023-05-19T13:18:14;20.70;53.80
77829;DHT22;67019;51.034;3.728;2023-05-19T13:20:42;19.30;53.30
77829;DHT22;67019;51.034;3.728;2023-05-19T13:23:11;20.40;52.90
77829;DHT22;67019;51.034;3.728;2023-05-19T13:25:39;20.30;53.80
77829;DHT22;67019;51.034;3.728;2023-05-19T13:28:08;20.20;53.90
77829;DHT22;67019;51.034;3.728;2023-05-19T13:30:37;20.40;52.70
77829;DHT22;67019;51.034;3.728;2023-05-19T13:33:05;20.60;51.80
77829;DHT22;67019;51.034;3.728;2023-05-19T13:35:33;20.20;53.00
77829;DHT22;67019;51.034;3.728;2023-05-19T13:38:04;20.20;53.80
77829;DHT22;67019;51.034;3.728;2023-05-19T13:40:32;20.00;54.00
77829;DHT22;67019;51.034;3.728;2023-05-19T13:43:01;20.20;53.90
77829;DHT22;67019;51.034;3.728;2023-05-19T13:45:29;20.60;52.90
77829;DHT22;67019;51.034;3.728;2023-05-19T13:47:56;21.00;51.90
77829;DHT22;67019;51.034;3.728;2023-05-19T13:50:24;21.00;51.50
77829;DHT22;67019;51.034;3.728;2023-05-19T13:52:52;20.60;52.50
77829;DHT22;67019;51.034;3.728;2023-05-19T13:55:19;21.40;50.50
77829;DHT22;67019;51.034;3.728;2023-05-19T13:57:47;22.40;49.30
77829;DHT22;67019;51.034;3.728;2023-05-19T14:00:16;23.60;47.20
77829;DHT22;67019;51.034;3.728;2023-05-19T14:02:44;24.00;46.30
77829;DHT22;67019;51.034;3.728;2023-05-19T14:05:12;24.00;44.80
77829;DHT22;67019;51.034;3.728;2023-05-19T14:07:39;23.70;45.70
77829;DHT22;67019;51.034;3.728;2023-05-19T14:10:08;24.00;44.30
77829;DHT22;67019;51.034;3.728;2023-05-19T14:12:36;24.20;44.10
77829;DHT22;67019;51.034;3.728;2023-05-19T14:15:04;24.40;43.90
77829;DHT22;67019;51.034;3.728;2023-05-19T14:17:32;25.30;42.00
77829;DHT22;67019;51.034;3.728;2023-05-19T14:20:00;25.40;42.10
77829;DHT22;67019;51.034;3.728;2023-05-19T14:22:27;26.60;40.10
77829;DHT22;67019;51.034;3.728;2023-05-19T14:24:55;26.60;39.50
77829;DHT22;67019;51.034;3.728;2023-05-19T14:27:23;27.40;38.90
77829;DHT22;67019;51.034;3.728;2023-05-19T14:29:50;26.90;38.90
77829;DHT22;67019;51.034;3.728;2023-05-19T14:32:18;26.00;39.40
77829;DHT22;67019;51.034;3.728;2023-05-19T14:34:46;25.50;40.20
77829;DHT22;67019;51.034;3.728;2023-05-19T14:37:15;25.70;39.50
77829;DHT22;67019;51.034;3.728;2023-05-19T14:39:43;26.40;38.70
77829;DHT22;67019;51.034;3.728;2023-05-19T14:42:11;26.40;38.20
77829;DHT22;67019;51.034;3.728;2023-05-19T14:44:38;25.90;39.30
77829;DHT22;67019;51.034;3.728;2023-05-19T14:47:06;24.50;40.90
77829;DHT22;67019;51.034;3.728;2023-05-19T14:49:33;22.90;42.20
77829;DHT22;67019;51.034;3.728;2023-05-19T14:52:01;22.60;43.20
77829;DHT22;67019;51.034;3.728;2023-05-19T14:54:28;22.70;45.00
77829;DHT22;67019;51.034;3.728;2023-05-19T14:56:56;22.90;44.10
77829;DHT22;67019;51.034;3.728;2023-05-19T14:59:23;23.00;43.90
77829;DHT22;67019;51.034;3.728;2023-05-19T15:01:51;23.30;43.80
77829;DHT22;67019;51.034;3.728;2023-05-19T15:04:19;23.60;43.60
77829;DHT22;67019;51.034;3.728;2023-05-19T15:06:46;23.70;42.70
77829;DHT22;67019;51.034;3.728;2023-05-19T15:09:15;24.70;41.20
77829;DHT22;67019;51.034;3.728;2023-05-19T15:11:43;24.50;41.50
77829;DHT22;67019;51.034;3.728;2023-05-19T15:14:10;25.10;40.40
77829;DHT22;67019;51.034;3.728;2023-05-19T15:16:38;25.50;39.90
77829;DHT22;67019;51.034;3.728;2023-05-19T15:19:07;25.10;40.30
77829;DHT22;67019;51.034;3.728;2023-05-19T15:21:34;25.30;40.30
77829;DHT22;67019;51.034;3.728;2023-05-19T15:24:02;24.70;40.40
77829;DHT22;67019;51.034;3.728;2023-05-19T15:26:29;23.90;41.60
77829;DHT22;67019;51.034;3.728;2023-05-19T15:28:57;24.40;41.30
77829;DHT22;67019;51.034;3.728;2023-05-19T15:31:25;24.80;40.60
77829;DHT22;67019;51.034;3.728;2023-05-19T15:33:53;25.40;39.90
77829;DHT22;67019;51.034;3.728;2023-05-19T15:36:20;25.80;38.60
77829;DHT22;67019;51.034;3.728;2023-05-19T15:38:48;26.10;37.80
77829;DHT22;67019;51.034;3.728;2023-05-19T15:41:15;26.10;37.90
77829;DHT22;67019;51.034;3.728;2023-05-19T15:43:43;26.40;37.50
77829;DHT22;67019;51.034;3.728;2023-05-19T15:46:11;26.60;37.00
77829;DHT22;67019;51.034;3.728;2023-05-19T15:48:41;26.20;37.10
77829;DHT22;67019;51.034;3.728;2023-05-19T15:51:08;25.80;37.60
77829;DHT22;67019;51.034;3.728;2023-05-19T15:53:37;25.70;37.20
77829;DHT22;67019;51.034;3.728;2023-05-19T15:56:04;26.70;36.40
77829;DHT22;67019;51.034;3.728;2023-05-19T15:58:32;26.80;36.00
77829;DHT22;67019;51.034;3.728;2023-05-19T16:01:00;26.40;36.30
77829;DHT22;67019;51.034;3.728;2023-05-19T16:03:27;25.90;36.70
77829;DHT22;67019;51.034;3.728;2023-05-19T16:05:55;25.80;37.10
77829;DHT22;67019;51.034;3.728;2023-05-19T16:08:23;25.40;37.30
77829;DHT22;67019;51.034;3.728;2023-05-19T16:13:17;25.20;37.60
77829;DHT22;67019;51.034;3.728;2023-05-19T16:15:45;25.30;37.60
77829;DHT22;67019;51.034;3.728;2023-05-19T16:18:14;25.60;36.80
77829;DHT22;67019;51.034;3.728;2023-05-19T16:20:42;24.90;37.30
77829;DHT22;67019;51.034;3.728;2023-05-19T16:23:09;24.70;37.20
77829;DHT22;67019;51.034;3.728;2023-05-19T16:25:37;24.70;41.90
77829;DHT22;67019;51.034;3.728;2023-05-19T16:28:04;25.00;42.80
77829;DHT22;67019;51.034;3.728;2023-05-19T16:30:32;24.70;44.50
77829;DHT22;67019;51.034;3.728;2023-05-19T16:32:59;24.50;44.50
77829;DHT22;67019;51.034;3.728;2023-05-19T16:35:27;24.40;44.90